TimeCDT,TemperatureF,Dew PointF,Humidity,Sea Level PressureIn,VisibilityMPH,Wind Direction,Wind SpeedMPH,Gust SpeedMPH,PrecipitationIn,Events,Conditions,WindDirDegrees,DateUTC
12:53 AM,50.0,43.0,77,30.13,10.0,NE,6.9,-,N/A,,Scattered Clouds,40,2012-10-08 05:53:00
1:53 AM,48.0,44.1,86,30.15,10.0,NNE,9.2,-,0.01,Rain,Light Rain,20,2012-10-08 06:53:00
2:53 AM,48.0,44.1,86,30.13,10.0,NNE,5.8,-,0.00,,Overcast,30,2012-10-08 07:53:00
3:53 AM,48.0,44.1,86,30.14,10.0,NNE,9.2,-,N/A,,Overcast,20,2012-10-08 08:53:00
4:53 AM,46.9,45.0,93,30.16,9.0,North,6.9,-,0.01,Rain,Light Rain,360,2012-10-08 09:53:00
5:53 AM,46.9,45.0,93,30.18,10.0,NNE,8.1,-,0.00,Rain,Light Rain,20,2012-10-08 10:53:00
6:53 AM,46.0,45.0,96,30.20,5.0,NNE,5.8,-,0.08,Rain,Rain,30,2012-10-08 11:53:00
7:53 AM,46.9,46.0,97,30.22,5.0,North,5.8,-,0.14,,Overcast,350,2012-10-08 12:53:00
8:53 AM,48.0,48.0,100,30.22,8.0,NNE,3.5,-,0.01,,Overcast,30,2012-10-08 13:53:00
9:53 AM,50.0,50.0,100,30.22,10.0,Calm,Calm,-,N/A,,Overcast,0,2012-10-08 14:53:00
10:24 AM,51.8,51.8,100,30.22,10.0,East,4.6,-,N/A,,Overcast,80,2012-10-08 15:24:00
10:38 AM,51.8,51.8,100,30.22,10.0,North,4.6,-,N/A,,Overcast,10,2012-10-08 15:38:00
10:53 AM,53.1,52.0,96,30.22,10.0,NE,6.9,-,N/A,,Overcast,50,2012-10-08 15:53:00
11:03 AM,51.8,51.8,100,30.22,10.0,Calm,Calm,-,N/A,,Overcast,0,2012-10-08 16:03:00
11:20 AM,55.4,48.2,77,30.22,10.0,NNE,4.6,-,N/A,,Overcast,20,2012-10-08 16:20:00
11:53 AM,54.0,46.0,75,30.21,10.0,ENE,4.6,-,N/A,,Overcast,60,2012-10-08 16:53:00
12:53 PM,55.0,44.1,67,30.20,10.0,Variable,3.5,-,N/A,,Overcast,0,2012-10-08 17:53:00
1:37 PM,55.4,44.6,67,30.18,10.0,Variable,5.8,-,N/A,,Overcast,0,2012-10-08 18:37:00
1:53 PM,55.9,45.0,67,30.17,10.0,NW,5.8,-,N/A,,Overcast,320,2012-10-08 18:53:00
2:04 PM,55.4,44.6,67,30.17,10.0,NW,4.6,-,N/A,,Overcast,320,2012-10-08 19:04:00
2:13 PM,57.2,44.6,63,30.17,10.0,NE,3.5,-,N/A,,Overcast,40,2012-10-08 19:13:00
2:53 PM,59.0,45.0,60,30.16,10.0,NNW,6.9,-,N/A,,Scattered Clouds,330,2012-10-08 19:53:00
3:53 PM,57.9,44.1,60,30.15,10.0,NNE,3.5,-,N/A,,Overcast,20,2012-10-08 20:53:00
4:53 PM,57.0,44.1,62,30.14,10.0,NNE,4.6,-,N/A,,Overcast,30,2012-10-08 21:53:00
5:53 PM,55.0,46.0,72,30.15,10.0,Calm,Calm,-,N/A,,Overcast,0,2012-10-08 22:53:00
6:53 PM,53.1,48.0,83,30.14,10.0,NE,3.5,-,N/A,,Overcast,40,2012-10-08 23:53:00
7:53 PM,48.0,46.0,93,30.15,10.0,NE,4.6,-,N/A,,Clear,40,2012-10-09 00:53:00
8:53 PM,46.0,45.0,96,30.17,10.0,Calm,Calm,-,N/A,,Clear,0,2012-10-09 01:53:00
9:53 PM,45.0,43.0,93,30.17,10.0,Calm,Calm,-,0.01,,Clear,0,2012-10-09 02:53:00
10:53 PM,44.1,43.0,96,30.18,10.0,Calm,Calm,-,N/A,,Clear,0,2012-10-09 03:53:00
11:53 PM,43.0,41.0,93,30.17,8.0,Calm,Calm,-,N/A,,Clear,0,2012-10-09 04:53:00